TimeMST,TemperatureF,Dew PointF,Humidity,Sea Level PressureIn,VisibilityMPH,Wind Direction,Wind SpeedMPH,Gust SpeedMPH,PrecipitationIn,Events,Conditions,WindDirDegrees,DateUTC
12:54 AM,21.9,15.1,75,30.11,10.0,SW,8.1,-,N/A,,Overcast,230,2012-02-24 07:54:00
1:54 AM,21.0,12.9,71,30.12,10.0,WNW,5.8,-,N/A,,Overcast,290,2012-02-24 08:54:00
2:54 AM,23.0,15.1,72,30.14,10.0,WNW,11.5,-,N/A,,Overcast,290,2012-02-24 09:54:00
3:54 AM,25.0,18.0,75,30.14,10.0,WNW,16.1,-,0.00,,Overcast,290,2012-02-24 10:54:00
4:54 AM,24.1,16.0,71,30.17,10.0,West,13.8,-,N/A,,Overcast,280,2012-02-24 11:54:00
5:54 AM,21.9,17.1,82,30.21,10.0,West,9.2,-,N/A,,Overcast,270,2012-02-24 12:54:00
6:54 AM,21.9,17.1,82,30.23,10.0,West,6.9,-,N/A,,Overcast,270,2012-02-24 13:54:00
7:54 AM,21.9,17.1,82,30.25,10.0,West,3.5,-,N/A,,Overcast,280,2012-02-24 14:54:00
8:54 AM,23.0,17.1,78,30.26,10.0,West,6.9,-,N/A,,Overcast,260,2012-02-24 15:54:00
9:54 AM,24.1,18.0,77,30.24,10.0,West,5.8,-,N/A,,Overcast,260,2012-02-24 16:54:00
10:54 AM,25.0,16.0,69,30.23,10.0,West,4.6,-,N/A,,Overcast,270,2012-02-24 17:54:00
11:54 AM,27.0,16.0,63,30.21,10.0,Calm,Calm,-,N/A,,Mostly Cloudy,0,2012-02-24 18:54:00
12:54 PM,28.9,14.0,54,30.19,10.0,Calm,Calm,-,N/A,,Clear,0,2012-02-24 19:54:00
1:54 PM,30.0,14.0,51,30.16,10.0,Calm,Calm,-,N/A,,Mostly Cloudy,0,2012-02-24 20:54:00
2:54 PM,30.0,15.1,54,30.14,10.0,Calm,Calm,-,N/A,,Overcast,0,2012-02-24 21:54:00
3:54 PM,30.9,16.0,54,30.11,10.0,East,3.5,-,N/A,,Mostly Cloudy,100,2012-02-24 22:54:00
4:54 PM,28.0,17.1,63,30.09,10.0,East,6.9,-,N/A,,Partly Cloudy,100,2012-02-24 23:54:00
5:54 PM,28.9,19.0,67,30.07,10.0,ESE,8.1,-,N/A,,Overcast,110,2012-02-25 00:54:00
6:54 PM,28.0,19.0,69,30.05,10.0,ESE,11.5,-,N/A,,Overcast,110,2012-02-25 01:54:00
7:54 PM,28.9,19.9,69,30.01,10.0,ESE,11.5,-,N/A,,Overcast,110,2012-02-25 02:54:00
8:54 PM,28.0,19.9,72,29.97,10.0,ESE,9.2,-,N/A,,Overcast,110,2012-02-25 03:54:00
9:54 PM,28.0,19.9,72,29.91,10.0,ESE,10.4,-,N/A,,Overcast,110,2012-02-25 04:54:00
10:54 PM,28.0,19.0,69,29.86,10.0,ESE,6.9,-,N/A,,Mostly Cloudy,110,2012-02-25 05:54:00
11:54 PM,26.1,18.0,71,29.80,10.0,East,11.5,-,N/A,,Clear,100,2012-02-25 06:54:00